Chara, Russia
Current Conditions -  °F | °C
As of 11:00 PM on Saturday 22 Nov 2014 (Local Time) from UIAA Reporting Station
Haze Haze  
Wind Chill: -2°   Ceiling: 20000
Heat Index: -2°   Visibility: 3mi
Dew Point: -6°   Wind: 0mph
Humidity: 85%   Direction: NA
Pressure: 29.91"   Gusts: NA
Location:  56.91°N, 118.26°E
Report Text: UIAA 221400Z 00000MPS 5000 BR FEW100 BKN200 M19/M21 Q1013 NOSIGRMK QFE701 29CLRD70
Loading
Personal Weather Stations






























Interactive Weather Map New forecast layout! Learn more

10-Day Weather Forecast

Advertisements
Track Severe Weather on mobile